createdAt,value
2023-02-18T00:54:07.408Z,11.99
2023-02-18T01:02:24.920Z,11.96
2023-02-18T01:06:08.526Z,11.89
2023-02-18T02:02:42.378Z,11.41
2023-02-18T02:05:44.909Z,11.47
2023-02-18T02:08:55.383Z,11.32
2023-02-18T02:12:20.847Z,11.35
2023-02-18T02:15:32.717Z,11.29
2023-02-18T02:18:50.720Z,11.23
2023-02-18T02:22:18.179Z,11.31
2023-02-18T02:25:55.209Z,11.12
2023-02-18T02:29:33.180Z,11.24
2023-02-18T02:33:05.092Z,11.28
2023-02-18T02:36:24.839Z,11.17
2023-02-18T02:39:34.984Z,11.30
2023-02-18T02:42:47.957Z,11.23
2023-02-18T02:45:59.543Z,11.36
2023-02-18T02:49:13.039Z,11.56
2023-02-18T02:52:31.046Z,11.43
2023-02-18T02:55:38.723Z,11.51
2023-02-18T02:58:40.883Z,11.56
2023-02-18T03:02:08.830Z,11.56
2023-02-18T03:05:28.995Z,11.55
2023-02-18T03:08:43.790Z,11.58
2023-02-18T03:12:01.375Z,11.52
2023-02-18T03:15:14.610Z,11.56
2023-02-18T03:18:35.081Z,11.55
2023-02-18T03:21:53.401Z,11.66
2023-02-18T03:25:08.687Z,11.59
2023-02-18T03:28:24.406Z,11.64
2023-02-18T03:31:51.372Z,11.55
2023-02-18T03:35:15.509Z,11.46
2023-02-18T03:38:39.260Z,11.47
2023-02-18T03:42:01.562Z,11.47
2023-02-18T03:45:22.414Z,11.43
2023-02-18T03:48:43.349Z,11.42
2023-02-18T03:52:04.324Z,11.45
2023-02-18T03:55:24.630Z,11.40
2023-02-18T03:58:47.935Z,11.46
2023-02-18T04:02:08.080Z,11.59
2023-02-18T04:05:28.711Z,11.62
2023-02-18T04:08:49.255Z,11.46
2023-02-18T04:12:10.157Z,11.50
2023-02-18T04:15:32.658Z,11.58
2023-02-18T04:18:55.620Z,11.46
2023-02-18T04:22:15.997Z,11.62
2023-02-18T04:25:36.766Z,11.59
2023-02-18T04:28:56.962Z,11.54
2023-02-18T04:32:19.032Z,11.49
2023-02-18T04:35:42.024Z,11.39
2023-02-18T04:39:02.370Z,11.42
2023-02-18T04:42:23.260Z,11.54
2023-02-18T04:45:43.731Z,11.59
2023-02-18T04:49:05.383Z,11.35
2023-02-18T04:52:26.264Z,11.42
2023-02-18T04:55:50.660Z,11.40
2023-02-18T04:59:12.098Z,11.41
2023-02-18T05:02:32.839Z,11.44
2023-02-18T05:05:54.577Z,11.35
2023-02-18T05:09:15.144Z,11.43
2023-02-18T05:12:37.247Z,11.35
2023-02-18T05:15:58.064Z,11.53
2023-02-18T05:19:20.253Z,11.47
2023-02-18T05:22:42.064Z,11.60
2023-02-18T05:26:02.617Z,11.60
2023-02-18T05:29:23.316Z,11.54
2023-02-18T05:32:43.768Z,11.54
2023-02-18T05:36:04.977Z,11.49
2023-02-18T05:39:26.803Z,11.44
2023-02-18T05:42:48.727Z,11.36
2023-02-18T05:46:09.536Z,11.53
2023-02-18T05:49:31.695Z,11.57
2023-02-18T05:52:52.163Z,11.42
2023-02-18T05:56:14.047Z,11.29
2023-02-18T05:59:34.955Z,11.59
2023-02-18T06:02:55.340Z,11.62
2023-02-18T06:06:16.181Z,11.58
2023-02-18T06:09:36.605Z,11.61
2023-02-18T06:12:58.634Z,11.65
2023-02-18T06:16:19.039Z,11.55
2023-02-18T06:19:39.514Z,11.48
2023-02-18T06:23:00.371Z,11.63
2023-02-18T06:26:21.186Z,11.54
2023-02-18T06:29:43.119Z,11.46
2023-02-18T06:33:06.507Z,11.47
2023-02-18T06:36:27.050Z,11.43
2023-02-18T06:39:47.468Z,11.41
2023-02-18T06:43:08.269Z,11.46
2023-02-18T06:46:30.003Z,11.48
2023-02-18T06:49:51.085Z,11.51
2023-02-18T06:53:12.986Z,11.51
2023-02-18T06:56:33.924Z,11.50
2023-02-18T06:59:54.282Z,11.53
2023-02-18T07:03:16.630Z,11.53
2023-02-18T07:06:37.340Z,11.48
2023-02-18T07:09:59.443Z,11.37
2023-02-18T07:13:20.674Z,11.32
2023-02-18T07:16:41.367Z,11.33
2023-02-18T07:20:04.726Z,11.28
2023-02-18T07:23:27.944Z,11.29
2023-02-18T07:26:48.793Z,11.30
2023-02-18T07:30:10.244Z,11.27
2023-02-18T07:33:30.900Z,11.29
2023-02-18T07:36:52.773Z,11.53
2023-02-18T07:40:15.252Z,11.43
2023-02-18T07:43:37.663Z,11.39
2023-02-18T07:46:58.113Z,11.43
2023-02-18T07:50:19.251Z,11.70
2023-02-18T07:53:41.299Z,11.54
2023-02-18T07:57:02.605Z,11.72
2023-02-18T08:00:24.293Z,11.75
2023-02-18T08:03:46.550Z,11.78
2023-02-18T08:07:07.416Z,11.73
2023-02-18T08:10:29.323Z,11.81
2023-02-18T08:13:49.681Z,11.69
2023-02-18T08:17:10.078Z,11.79
2023-02-18T08:20:30.799Z,11.87
2023-02-18T08:23:52.371Z,11.95
2023-02-18T08:27:14.739Z,12.00
2023-02-18T08:30:35.566Z,11.97
2023-02-18T08:33:58.846Z,12.15
2023-02-18T08:37:19.278Z,12.18
2023-02-18T08:40:40.936Z,12.10
2023-02-18T08:44:02.480Z,12.19
2023-02-18T08:48:16.151Z,12.09
2023-02-18T08:51:13.283Z,12.26
2023-02-18T08:54:34.484Z,12.27
2023-02-18T08:57:54.622Z,12.27
2023-02-18T09:01:20.937Z,12.28
2023-02-18T09:04:41.873Z,12.29
2023-02-18T09:08:02.459Z,12.30
2023-02-18T09:11:23.329Z,12.35
2023-02-18T09:14:43.604Z,12.30
2023-02-18T09:24:06.602Z,12.20
2023-02-18T09:27:11.375Z,12.26
2023-02-18T09:30:14.146Z,12.33
2023-02-18T09:33:16.213Z,12.32
2023-02-18T09:36:21.574Z,12.39
2023-02-18T09:39:24.957Z,12.42
2023-02-18T09:42:31.122Z,12.43
2023-02-18T09:45:33.709Z,12.39
2023-02-18T09:48:37.520Z,12.42
2023-02-18T09:51:41.959Z,12.52
2023-02-18T09:54:45.178Z,12.42
2023-02-18T09:57:51.217Z,12.39
2023-02-18T10:00:56.411Z,12.37
2023-02-18T10:04:01.826Z,12.44
2023-02-18T10:07:04.394Z,12.56
2023-02-18T10:10:16.732Z,12.60
2023-02-18T10:13:20.882Z,12.68
2023-02-18T10:16:24.346Z,12.75
2023-02-18T10:19:32.387Z,12.77
2023-02-18T10:22:34.207Z,12.66
2023-02-18T10:25:42.501Z,12.62
2023-02-18T10:28:45.268Z,12.70
2023-02-18T10:31:54.070Z,12.64
2023-02-18T10:35:03.133Z,12.56
2023-02-18T10:38:14.373Z,12.50
2023-02-18T10:41:28.867Z,12.49
2023-02-18T10:44:41.841Z,12.54
2023-02-18T10:47:55.369Z,12.66
2023-02-18T10:51:03.037Z,12.62
2023-02-18T10:54:06.833Z,12.54
2023-02-18T10:57:18.515Z,12.61
2023-02-18T11:00:24.271Z,12.57
2023-02-18T11:03:39.582Z,12.57
2023-02-18T11:06:45.166Z,12.61
2023-02-18T11:09:49.403Z,12.65
2023-02-18T11:12:57.651Z,12.62
2023-02-18T11:16:04.575Z,12.65
2023-02-18T11:19:34.063Z,12.74
2023-02-18T11:22:41.454Z,12.76
2023-02-18T11:25:54.890Z,12.77
2023-02-18T11:29:01.508Z,12.78
2023-02-18T11:32:03.745Z,12.74
2023-02-18T11:35:06.335Z,12.70
2023-02-18T11:38:24.050Z,12.82
2023-02-18T11:41:34.048Z,13.05
2023-02-18T11:44:40.274Z,13.11
2023-02-18T11:47:42.105Z,13.12
2023-02-18T11:50:44.776Z,13.52
2023-02-18T11:53:59.799Z,13.39
2023-02-18T11:57:04.218Z,13.54
2023-02-18T12:00:19.342Z,13.39
2023-02-18T12:03:34.075Z,13.40
2023-02-18T12:06:43.158Z,13.60
2023-02-18T12:09:49.042Z,13.53
2023-02-18T12:12:59.862Z,13.55
2023-02-18T12:16:09.953Z,13.37
2023-02-18T12:19:30.174Z,13.15
2023-02-18T12:22:41.692Z,13.19
2023-02-18T12:25:51.948Z,13.03
2023-02-18T12:29:28.442Z,13.09
2023-02-18T12:32:45.181Z,13.04
2023-02-18T12:36:04.111Z,13.00
2023-02-18T12:39:17.765Z,13.09
2023-02-18T12:42:35.542Z,13.11
2023-02-18T12:45:52.401Z,13.21
2023-02-18T12:49:06.189Z,13.14
2023-02-18T12:52:19.270Z,13.11
2023-02-18T12:55:37.648Z,13.05
2023-02-18T12:58:54.475Z,13.13
2023-02-18T13:02:07.069Z,13.12
2023-02-18T13:05:21.980Z,13.08
2023-02-18T13:08:36.808Z,13.11
2023-02-18T13:11:49.156Z,13.05
2023-02-18T13:14:59.482Z,13.03
2023-02-18T13:18:06.065Z,13.09
2023-02-18T13:21:13.051Z,13.11
2023-02-18T13:24:30.993Z,13.14
2023-02-18T13:27:38.985Z,13.09
2023-02-18T13:30:48.498Z,13.09
2023-02-18T13:33:57.012Z,13.04
2023-02-18T13:37:08.430Z,12.92
2023-02-18T13:40:18.359Z,13.07
2023-02-18T13:43:29.618Z,13.08
2023-02-18T13:46:31.506Z,13.13
2023-02-18T13:49:36.214Z,13.08
2023-02-18T13:52:41.907Z,13.09
2023-02-18T13:55:55.486Z,13.04
2023-02-18T13:59:01.917Z,12.87
2023-02-18T14:02:32.008Z,12.80
2023-02-18T14:05:40.474Z,12.68
2023-02-18T14:08:44.764Z,12.86
2023-02-18T14:11:48.650Z,12.76
2023-02-18T14:14:51.662Z,12.78
2023-02-18T14:18:22.594Z,12.71
2023-02-18T14:21:39.204Z,12.68
2023-02-18T14:24:49.186Z,12.65
2023-02-18T14:27:52.782Z,12.70
2023-02-18T14:30:54.833Z,12.71
2023-02-18T14:34:30.585Z,12.64
2023-02-18T14:38:02.850Z,12.59
2023-02-18T14:41:19.233Z,12.69
2023-02-18T14:44:42.875Z,12.63
2023-02-18T14:48:33.003Z,12.63
2023-02-18T14:51:35.843Z,12.61
2023-02-18T14:54:40.391Z,12.56
2023-02-18T14:57:48.694Z,12.53
2023-02-18T15:00:50.467Z,12.60
2023-02-18T15:03:55.202Z,12.51
2023-02-18T15:07:01.963Z,12.48
2023-02-18T15:10:04.193Z,12.49
2023-02-18T15:13:15.627Z,12.46
2023-02-18T15:16:22.061Z,12.40
2023-02-18T15:19:27.476Z,12.49
2023-02-18T15:22:34.205Z,12.57
2023-02-18T15:25:38.603Z,12.39
2023-02-18T15:28:56.385Z,12.11
2023-02-18T15:32:00.756Z,11.94
2023-02-18T15:35:14.490Z,12.03
2023-02-18T15:38:18.629Z,12.11
2023-02-18T15:41:23.017Z,11.63
2023-02-18T15:44:29.449Z,11.49
2023-02-18T15:47:32.871Z,11.44
2023-02-18T15:50:37.748Z,11.61
2023-02-18T15:53:43.337Z,11.62
2023-02-18T15:56:49.544Z,11.65
2023-02-18T15:59:59.986Z,11.61
2023-02-18T16:03:05.211Z,11.78
2023-02-18T16:06:13.582Z,11.77
2023-02-18T16:09:19.608Z,11.80
2023-02-18T16:12:28.867Z,11.81
2023-02-18T16:15:39.443Z,11.80
2023-02-18T16:18:42.345Z,11.76
2023-02-18T16:21:45.448Z,11.79
2023-02-18T16:24:51.826Z,11.73
2023-02-18T16:28:05.408Z,11.76
2023-02-18T16:31:11.042Z,11.67
2023-02-18T16:34:12.962Z,11.70
2023-02-18T16:37:33.914Z,11.72
2023-02-18T16:40:39.163Z,11.75
2023-02-18T16:43:41.672Z,11.69
2023-02-18T16:46:45.452Z,11.68
2023-02-18T16:49:49.932Z,11.64
2023-02-18T16:52:51.921Z,11.68
2023-02-18T16:55:56.912Z,11.65
2023-02-18T16:58:59.562Z,11.65
2023-02-18T17:02:03.208Z,11.59
2023-02-18T17:05:09.810Z,11.55
2023-02-18T17:08:25.602Z,11.55
2023-02-18T17:11:30.667Z,11.43
2023-02-18T17:14:34.174Z,11.50
2023-02-18T17:17:37.250Z,11.45
2023-02-18T17:20:39.896Z,11.46
2023-02-18T17:23:43.982Z,11.37
2023-02-18T17:26:45.843Z,11.39
2023-02-18T17:29:47.880Z,11.38
2023-02-18T17:32:53.479Z,11.32
2023-02-18T17:35:55.368Z,11.34
2023-02-18T17:38:58.472Z,11.27
2023-02-18T17:42:03.136Z,11.21
2023-02-18T17:45:17.668Z,11.22
2023-02-18T17:48:21.295Z,11.19
2023-02-18T17:51:24.965Z,11.20
2023-02-18T17:54:28.216Z,11.00
2023-02-18T17:57:30.133Z,11.12
2023-02-18T18:00:34.212Z,11.10
2023-02-18T18:03:38.684Z,11.04
2023-02-18T18:06:40.690Z,11.00
2023-02-18T18:09:42.515Z,10.93
2023-02-18T18:12:45.629Z,10.81
2023-02-18T18:15:47.925Z,10.59
2023-02-18T18:18:51.179Z,10.75
2023-02-18T18:21:53.745Z,10.76
2023-02-18T18:24:55.771Z,10.60
2023-02-18T18:27:57.796Z,10.62
2023-02-18T18:31:02.159Z,10.63
2023-02-18T18:34:05.284Z,10.58
2023-02-18T18:37:07.062Z,10.57
2023-02-18T18:40:10.082Z,10.56
2023-02-18T18:43:17.969Z,10.37
2023-02-18T18:46:19.809Z,10.50
2023-02-18T18:49:23.069Z,10.51
2023-02-18T18:52:25.018Z,10.60
2023-02-18T18:55:29.545Z,10.61
2023-02-18T18:58:31.599Z,10.59
2023-02-18T19:01:33.489Z,10.61
2023-02-18T19:04:36.566Z,10.54
2023-02-18T19:07:38.786Z,10.58
2023-02-18T19:10:42.824Z,10.45
2023-02-18T19:13:45.649Z,10.69
2023-02-18T19:16:47.488Z,10.64
2023-02-18T19:19:50.522Z,10.69
2023-02-18T19:22:52.609Z,10.71
2023-02-18T19:25:54.373Z,10.64
2023-02-18T19:28:56.138Z,10.68
2023-02-18T19:31:58.836Z,10.57
2023-02-18T19:35:01.948Z,10.68
2023-02-18T19:38:03.774Z,10.56
2023-02-18T19:41:07.314Z,10.60
2023-02-18T19:44:09.403Z,10.64
2023-02-18T19:47:11.083Z,10.56
2023-02-18T19:50:16.220Z,10.64
2023-02-18T19:53:17.995Z,10.63
2023-02-18T19:56:19.785Z,10.62
2023-02-18T19:59:21.468Z,10.64
2023-02-18T20:02:26.398Z,10.56
2023-02-18T20:05:29.531Z,10.61
2023-02-18T20:08:36.748Z,10.55
2023-02-18T20:11:38.558Z,10.58
2023-02-18T20:14:41.476Z,10.59
2023-02-18T20:17:43.709Z,10.57
2023-02-18T20:20:49.007Z,10.57
2023-02-18T20:23:53.705Z,10.56
2023-02-18T20:26:55.784Z,10.47
2023-02-18T20:29:57.562Z,10.50
2023-02-18T20:32:59.563Z,10.50
2023-02-18T20:36:04.549Z,10.43
2023-02-18T20:39:15.574Z,10.47
2023-02-18T20:42:17.812Z,10.50
2023-02-18T20:45:19.927Z,10.47
2023-02-18T20:48:21.742Z,10.52
2023-02-18T20:51:24.894Z,10.45
2023-02-18T20:54:27.076Z,10.44
2023-02-18T20:57:28.854Z,10.49
2023-02-18T21:00:30.655Z,10.49
2023-02-18T21:03:33.325Z,10.42
2023-02-18T21:06:36.652Z,10.50
2023-02-18T21:09:38.580Z,10.51
2023-02-18T21:12:40.341Z,10.53
2023-02-18T21:15:42.168Z,10.42
2023-02-18T21:18:44.305Z,10.42
2023-02-18T21:21:47.529Z,10.46
2023-02-18T21:24:50.910Z,10.45
2023-02-18T21:27:52.638Z,10.43
2023-02-18T21:30:54.358Z,10.44
2023-02-18T21:33:56.493Z,10.33
2023-02-18T21:36:59.579Z,10.40
2023-02-18T21:40:02.168Z,10.42
2023-02-18T21:43:04.195Z,10.33
2023-02-18T21:46:10.266Z,10.36
2023-02-18T21:49:12.463Z,10.33
2023-02-18T21:52:16.761Z,10.35
2023-02-18T21:55:19.089Z,10.35
2023-02-18T21:58:24.694Z,10.32
2023-02-18T22:01:27.765Z,10.28
2023-02-18T22:04:32.592Z,10.28
2023-02-18T22:07:37.831Z,10.25
2023-02-18T22:10:39.647Z,10.24
2023-02-18T22:13:41.604Z,10.22
2023-02-18T22:16:43.982Z,10.21
2023-02-18T22:19:46.191Z,10.23
2023-02-18T22:22:49.354Z,10.23
2023-02-18T22:25:52.341Z,10.20
2023-02-18T22:28:55.926Z,10.20
2023-02-18T22:31:57.731Z,10.23
2023-02-18T22:34:59.634Z,10.25
2023-02-18T22:38:02.713Z,10.28
2023-02-18T22:41:05.253Z,10.22
2023-02-18T22:44:08.996Z,10.28
2023-02-18T22:47:10.648Z,10.19
2023-02-18T22:50:12.425Z,10.23
2023-02-18T22:53:15.611Z,10.17
2023-02-18T22:56:19.585Z,10.21
2023-02-18T22:59:21.309Z,10.27
2023-02-18T23:02:24.957Z,10.20
2023-02-18T23:05:26.771Z,10.22
2023-02-18T23:08:32.548Z,10.21
2023-02-18T23:11:34.600Z,10.20
2023-02-18T23:14:36.381Z,10.21
2023-02-18T23:17:38.043Z,10.26
2023-02-18T23:20:58.616Z,10.21
2023-02-18T23:24:02.084Z,10.23
2023-02-18T23:27:08.399Z,10.21
2023-02-18T23:30:11.971Z,10.14
2023-02-18T23:33:13.912Z,10.11
2023-02-18T23:36:17.836Z,10.14
2023-02-18T23:39:22.761Z,10.16
2023-02-18T23:42:24.654Z,10.06
2023-02-18T23:45:26.664Z,10.05
2023-02-18T23:48:28.383Z,9.99
2023-02-18T23:51:30.233Z,9.96
2023-02-18T23:54:33.395Z,10.05
2023-02-18T23:57:35.378Z,10.03
